sensor_id;sensor_type;location;lat;lon;timestamp;P1;durP1;ratioP1;P2;durP2;ratioP2
21297;SDS011;10808;48.010;11.326;2023-03-04T00:01:48;102.45;;;49.33;;
21297;SDS011;10808;48.010;11.326;2023-03-04T00:04:15;113.83;;;49.83;;
21297;SDS011;10808;48.010;11.326;2023-03-04T00:06:41;103.00;;;48.05;;
21297;SDS011;10808;48.010;11.326;2023-03-04T00:09:07;111.50;;;49.65;;
21297;SDS011;10808;48.010;11.326;2023-03-04T00:11:33;107.45;;;49.88;;
21297;SDS011;10808;48.010;11.326;2023-03-04T00:13:59;104.00;;;48.05;;
21297;SDS011;10808;48.010;11.326;2023-03-04T00:16:25;100.78;;;46.50;;
21297;SDS011;10808;48.010;11.326;2023-03-04T00:18:52;104.65;;;48.03;;
21297;SDS011;10808;48.010;11.326;2023-03-04T00:21:19;99.07;;;47.63;;
21297;SDS011;10808;48.010;11.326;2023-03-04T00:23:45;95.87;;;46.43;;
21297;SDS011;10808;48.010;11.326;2023-03-04T00:26:11;105.00;;;48.47;;
21297;SDS011;10808;48.010;11.326;2023-03-04T00:28:38;99.27;;;47.10;;
21297;SDS011;10808;48.010;11.326;2023-03-04T00:31:05;108.57;;;51.00;;
21297;SDS011;10808;48.010;11.326;2023-03-04T00:33:31;106.47;;;50.10;;
21297;SDS011;10808;48.010;11.326;2023-03-04T00:35:58;107.53;;;51.75;;
21297;SDS011;10808;48.010;11.326;2023-03-04T00:38:24;117.17;;;53.20;;
21297;SDS011;10808;48.010;11.326;2023-03-04T00:40:51;135.95;;;56.00;;
21297;SDS011;10808;48.010;11.326;2023-03-04T00:43:17;155.27;;;56.83;;
21297;SDS011;10808;48.010;11.326;2023-03-04T00:45:43;131.75;;;55.28;;
21297;SDS011;10808;48.010;11.326;2023-03-04T00:48:09;193.90;;;57.13;;
21297;SDS011;10808;48.010;11.326;2023-03-04T00:50:36;155.95;;;56.97;;
21297;SDS011;10808;48.010;11.326;2023-03-04T00:53:03;136.23;;;44.78;;
21297;SDS011;10808;48.010;11.326;2023-03-04T00:55:30;172.80;;;49.72;;
21297;SDS011;10808;48.010;11.326;2023-03-04T00:57:56;115.90;;;48.35;;
21297;SDS011;10808;48.010;11.326;2023-03-04T01:00:23;121.20;;;48.15;;
21297;SDS011;10808;48.010;11.326;2023-03-04T01:02:49;142.07;;;51.50;;
21297;SDS011;10808;48.010;11.326;2023-03-04T01:05:15;113.55;;;46.38;;
21297;SDS011;10808;48.010;11.326;2023-03-04T01:07:41;129.77;;;46.25;;
21297;SDS011;10808;48.010;11.326;2023-03-04T01:10:08;89.53;;;39.83;;
21297;SDS011;10808;48.010;11.326;2023-03-04T01:12:35;98.50;;;40.03;;
21297;SDS011;10808;48.010;11.326;2023-03-04T01:15:01;86.88;;;38.17;;
21297;SDS011;10808;48.010;11.326;2023-03-04T01:17:28;98.30;;;39.38;;
21297;SDS011;10808;48.010;11.326;2023-03-04T01:19:54;122.33;;;40.40;;
21297;SDS011;10808;48.010;11.326;2023-03-04T01:22:20;103.97;;;40.17;;
21297;SDS011;10808;48.010;11.326;2023-03-04T01:24:46;90.47;;;40.85;;
21297;SDS011;10808;48.010;11.326;2023-03-04T01:27:12;87.00;;;38.72;;
21297;SDS011;10808;48.010;11.326;2023-03-04T01:29:38;150.57;;;40.47;;
21297;SDS011;10808;48.010;11.326;2023-03-04T01:32:04;100.88;;;39.03;;
21297;SDS011;10808;48.010;11.326;2023-03-04T01:34:31;107.93;;;39.97;;
21297;SDS011;10808;48.010;11.326;2023-03-04T01:36:57;126.18;;;41.13;;
21297;SDS011;10808;48.010;11.326;2023-03-04T01:39:23;103.80;;;38.60;;
21297;SDS011;10808;48.010;11.326;2023-03-04T01:41:49;94.22;;;39.75;;
21297;SDS011;10808;48.010;11.326;2023-03-04T01:44:15;90.18;;;39.42;;
21297;SDS011;10808;48.010;11.326;2023-03-04T01:46:43;88.23;;;38.30;;
21297;SDS011;10808;48.010;11.326;2023-03-04T01:49:16;96.05;;;40.03;;
21297;SDS011;10808;48.010;11.326;2023-03-04T01:51:44;88.53;;;40.75;;
21297;SDS011;10808;48.010;11.326;2023-03-04T01:54:16;109.60;;;46.40;;
21297;SDS011;10808;48.010;11.326;2023-03-04T01:56:43;110.10;;;50.20;;
21297;SDS011;10808;48.010;11.326;2023-03-04T02:01:51;107.17;;;48.43;;
21297;SDS011;10808;48.010;11.326;2023-03-04T02:04:20;98.05;;;47.90;;
21297;SDS011;10808;48.010;11.326;2023-03-04T02:06:49;102.05;;;49.42;;
21297;SDS011;10808;48.010;11.326;2023-03-04T02:09:16;99.93;;;48.55;;
21297;SDS011;10808;48.010;11.326;2023-03-04T02:11:44;92.60;;;45.67;;
21297;SDS011;10808;48.010;11.326;2023-03-04T02:14:11;90.38;;;44.88;;
21297;SDS011;10808;48.010;11.326;2023-03-04T02:16:39;87.38;;;43.38;;
21297;SDS011;10808;48.010;11.326;2023-03-04T02:19:12;85.10;;;42.47;;
21297;SDS011;10808;48.010;11.326;2023-03-04T02:21:43;76.18;;;40.90;;
21297;SDS011;10808;48.010;11.326;2023-03-04T02:26:35;78.25;;;39.85;;
21297;SDS011;10808;48.010;11.326;2023-03-04T02:29:04;75.27;;;38.47;;
21297;SDS011;10808;48.010;11.326;2023-03-04T02:31:34;70.25;;;37.70;;
21297;SDS011;10808;48.010;11.326;2023-03-04T02:34:06;71.75;;;37.65;;
21297;SDS011;10808;48.010;11.326;2023-03-04T02:36:41;71.10;;;36.80;;
21297;SDS011;10808;48.010;11.326;2023-03-04T02:39:20;71.78;;;37.83;;
21297;SDS011;10808;48.010;11.326;2023-03-04T02:41:53;71.33;;;37.13;;
21297;SDS011;10808;48.010;11.326;2023-03-04T02:44:20;68.85;;;36.83;;
21297;SDS011;10808;48.010;11.326;2023-03-04T02:46:48;71.43;;;36.75;;
21297;SDS011;10808;48.010;11.326;2023-03-04T02:49:15;72.78;;;37.00;;
21297;SDS011;10808;48.010;11.326;2023-03-04T02:51:42;89.30;;;36.47;;
21297;SDS011;10808;48.010;11.326;2023-03-04T02:54:15;88.68;;;38.38;;
21297;SDS011;10808;48.010;11.326;2023-03-04T02:56:44;115.45;;;39.45;;
21297;SDS011;10808;48.010;11.326;2023-03-04T02:59:13;94.03;;;39.25;;
21297;SDS011;10808;48.010;11.326;2023-03-04T03:01:39;97.95;;;37.80;;
21297;SDS011;10808;48.010;11.326;2023-03-04T03:04:06;90.10;;;37.88;;
21297;SDS011;10808;48.010;11.326;2023-03-04T03:06:32;111.15;;;38.08;;
21297;SDS011;10808;48.010;11.326;2023-03-04T03:08:58;86.35;;;38.28;;
21297;SDS011;10808;48.010;11.326;2023-03-04T03:11:24;101.53;;;37.63;;
21297;SDS011;10808;48.010;11.326;2023-03-04T03:13:50;100.43;;;36.25;;
21297;SDS011;10808;48.010;11.326;2023-03-04T03:16:16;83.00;;;38.55;;
21297;SDS011;10808;48.010;11.326;2023-03-04T03:18:43;93.30;;;37.70;;
21297;SDS011;10808;48.010;11.326;2023-03-04T03:21:09;86.85;;;36.45;;
21297;SDS011;10808;48.010;11.326;2023-03-04T03:23:37;90.90;;;35.33;;
21297;SDS011;10808;48.010;11.326;2023-03-04T03:26:03;101.73;;;37.43;;
21297;SDS011;10808;48.010;11.326;2023-03-04T03:28:29;134.63;;;36.23;;
21297;SDS011;10808;48.010;11.326;2023-03-04T03:30:55;117.68;;;36.67;;
21297;SDS011;10808;48.010;11.326;2023-03-04T03:33:22;120.65;;;37.63;;
21297;SDS011;10808;48.010;11.326;2023-03-04T03:35:48;129.20;;;35.13;;
21297;SDS011;10808;48.010;11.326;2023-03-04T03:38:14;100.72;;;35.97;;
21297;SDS011;10808;48.010;11.326;2023-03-04T03:40:40;119.25;;;36.10;;
21297;SDS011;10808;48.010;11.326;2023-03-04T03:43:06;70.93;;;35.08;;
21297;SDS011;10808;48.010;11.326;2023-03-04T03:45:32;91.00;;;36.53;;
21297;SDS011;10808;48.010;11.326;2023-03-04T03:47:58;80.72;;;35.38;;
21297;SDS011;10808;48.010;11.326;2023-03-04T03:50:25;76.90;;;34.17;;
21297;SDS011;10808;48.010;11.326;2023-03-04T03:52:51;79.80;;;33.75;;
21297;SDS011;10808;48.010;11.326;2023-03-04T03:55:17;97.93;;;33.13;;
21297;SDS011;10808;48.010;11.326;2023-03-04T03:57:43;66.43;;;33.50;;
21297;SDS011;10808;48.010;11.326;2023-03-04T04:00:09;62.20;;;33.10;;
21297;SDS011;10808;48.010;11.326;2023-03-04T04:02:36;63.90;;;33.85;;
21297;SDS011;10808;48.010;11.326;2023-03-04T04:05:02;82.47;;;32.97;;
21297;SDS011;10808;48.010;11.326;2023-03-04T04:07:28;70.07;;;31.80;;
21297;SDS011;10808;48.010;11.326;2023-03-04T04:09:54;62.47;;;33.15;;
21297;SDS011;10808;48.010;11.326;2023-03-04T04:12:20;59.70;;;33.33;;
21297;SDS011;10808;48.010;11.326;2023-03-04T04:14:46;58.53;;;32.53;;
21297;SDS011;10808;48.010;11.326;2023-03-04T04:17:12;54.25;;;31.35;;
21297;SDS011;10808;48.010;11.326;2023-03-04T04:19:39;59.73;;;32.80;;
21297;SDS011;10808;48.010;11.326;2023-03-04T04:22:06;53.85;;;30.85;;
21297;SDS011;10808;48.010;11.326;2023-03-04T04:24:33;55.00;;;32.30;;
21297;SDS011;10808;48.010;11.326;2023-03-04T04:26:59;58.70;;;32.72;;
21297;SDS011;10808;48.010;11.326;2023-03-04T04:29:26;54.35;;;31.55;;
21297;SDS011;10808;48.010;11.326;2023-03-04T04:31:52;53.75;;;31.73;;
21297;SDS011;10808;48.010;11.326;2023-03-04T04:34:18;51.75;;;31.25;;
21297;SDS011;10808;48.010;11.326;2023-03-04T04:36:44;51.63;;;30.55;;
21297;SDS011;10808;48.010;11.326;2023-03-04T04:39:10;52.90;;;31.60;;
21297;SDS011;10808;48.010;11.326;2023-03-04T04:41:37;50.38;;;30.40;;
21297;SDS011;10808;48.010;11.326;2023-03-04T04:44:04;51.47;;;30.93;;
21297;SDS011;10808;48.010;11.326;2023-03-04T04:46:30;51.50;;;30.52;;
21297;SDS011;10808;48.010;11.326;2023-03-04T04:48:57;50.85;;;30.55;;
21297;SDS011;10808;48.010;11.326;2023-03-04T04:51:23;50.22;;;30.73;;
21297;SDS011;10808;48.010;11.326;2023-03-04T04:53:49;51.63;;;31.37;;
21297;SDS011;10808;48.010;11.326;2023-03-04T04:56:16;50.22;;;30.17;;
21297;SDS011;10808;48.010;11.326;2023-03-04T04:58:44;51.90;;;30.50;;
21297;SDS011;10808;48.010;11.326;2023-03-04T05:01:11;48.15;;;29.58;;
21297;SDS011;10808;48.010;11.326;2023-03-04T05:03:37;51.63;;;31.17;;
21297;SDS011;10808;48.010;11.326;2023-03-04T05:06:05;56.63;;;31.95;;
21297;SDS011;10808;48.010;11.326;2023-03-04T05:08:32;58.95;;;34.05;;
21297;SDS011;10808;48.010;11.326;2023-03-04T05:10:59;56.13;;;33.40;;
21297;SDS011;10808;48.010;11.326;2023-03-04T05:13:26;62.50;;;34.35;;
21297;SDS011;10808;48.010;11.326;2023-03-04T05:15:53;56.13;;;32.03;;
21297;SDS011;10808;48.010;11.326;2023-03-04T05:20:53;53.05;;;31.08;;
21297;SDS011;10808;48.010;11.326;2023-03-04T05:23:20;56.20;;;32.67;;
21297;SDS011;10808;48.010;11.326;2023-03-04T05:25:47;56.90;;;32.08;;
21297;SDS011;10808;48.010;11.326;2023-03-04T05:28:13;55.38;;;31.63;;
21297;SDS011;10808;48.010;11.326;2023-03-04T05:30:40;53.43;;;31.17;;
21297;SDS011;10808;48.010;11.326;2023-03-04T05:33:08;54.45;;;31.95;;
21297;SDS011;10808;48.010;11.326;2023-03-04T05:35:35;57.43;;;33.20;;
21297;SDS011;10808;48.010;11.326;2023-03-04T05:38:03;56.38;;;32.33;;
21297;SDS011;10808;48.010;11.326;2023-03-04T05:40:30;56.85;;;33.10;;
21297;SDS011;10808;48.010;11.326;2023-03-04T05:42:56;55.55;;;31.73;;
21297;SDS011;10808;48.010;11.326;2023-03-04T05:45:22;59.60;;;33.08;;
21297;SDS011;10808;48.010;11.326;2023-03-04T05:47:50;54.35;;;32.03;;
21297;SDS011;10808;48.010;11.326;2023-03-04T05:50:16;58.72;;;33.80;;
21297;SDS011;10808;48.010;11.326;2023-03-04T05:52:43;62.53;;;33.65;;
21297;SDS011;10808;48.010;11.326;2023-03-04T05:55:09;59.55;;;34.78;;
21297;SDS011;10808;48.010;11.326;2023-03-04T05:57:36;59.70;;;34.95;;
21297;SDS011;10808;48.010;11.326;2023-03-04T06:00:02;60.00;;;34.47;;
21297;SDS011;10808;48.010;11.326;2023-03-04T06:02:30;61.20;;;34.63;;
21297;SDS011;10808;48.010;11.326;2023-03-04T06:04:56;63.30;;;34.67;;
21297;SDS011;10808;48.010;11.326;2023-03-04T06:07:22;63.10;;;35.17;;
21297;SDS011;10808;48.010;11.326;2023-03-04T06:09:48;61.03;;;34.08;;
21297;SDS011;10808;48.010;11.326;2023-03-04T06:12:14;58.28;;;33.40;;
21297;SDS011;10808;48.010;11.326;2023-03-04T06:14:40;59.83;;;33.63;;
21297;SDS011;10808;48.010;11.326;2023-03-04T06:17:06;58.70;;;34.00;;
21297;SDS011;10808;48.010;11.326;2023-03-04T06:19:32;61.55;;;33.78;;
21297;SDS011;10808;48.010;11.326;2023-03-04T06:21:58;61.55;;;33.95;;
21297;SDS011;10808;48.010;11.326;2023-03-04T06:24:24;65.00;;;35.75;;
21297;SDS011;10808;48.010;11.326;2023-03-04T06:26:52;61.92;;;35.20;;
21297;SDS011;10808;48.010;11.326;2023-03-04T06:29:18;63.27;;;36.20;;
21297;SDS011;10808;48.010;11.326;2023-03-04T06:31:45;63.65;;;36.08;;
21297;SDS011;10808;48.010;11.326;2023-03-04T06:34:11;68.25;;;36.30;;
21297;SDS011;10808;48.010;11.326;2023-03-04T06:36:37;67.38;;;37.15;;
21297;SDS011;10808;48.010;11.326;2023-03-04T06:39:04;66.47;;;36.53;;
21297;SDS011;10808;48.010;11.326;2023-03-04T06:41:30;68.18;;;37.03;;
21297;SDS011;10808;48.010;11.326;2023-03-04T06:43:56;72.65;;;38.92;;
21297;SDS011;10808;48.010;11.326;2023-03-04T06:46:23;73.18;;;40.05;;
21297;SDS011;10808;48.010;11.326;2023-03-04T06:48:49;75.57;;;39.85;;
21297;SDS011;10808;48.010;11.326;2023-03-04T06:51:15;72.93;;;38.92;;
21297;SDS011;10808;48.010;11.326;2023-03-04T06:53:41;79.00;;;41.35;;
21297;SDS011;10808;48.010;11.326;2023-03-04T06:56:08;78.50;;;40.43;;
21297;SDS011;10808;48.010;11.326;2023-03-04T06:58:36;79.32;;;41.67;;
21297;SDS011;10808;48.010;11.326;2023-03-04T07:01:36;81.50;;;42.45;;
21297;SDS011;10808;48.010;11.326;2023-03-04T07:03:55;77.25;;;40.65;;
21297;SDS011;10808;48.010;11.326;2023-03-04T07:06:23;74.60;;;40.08;;
21297;SDS011;10808;48.010;11.326;2023-03-04T07:08:51;75.15;;;39.38;;
21297;SDS011;10808;48.010;11.326;2023-03-04T07:11:17;77.50;;;40.40;;
21297;SDS011;10808;48.010;11.326;2023-03-04T07:13:44;79.93;;;41.03;;
21297;SDS011;10808;48.010;11.326;2023-03-04T07:16:12;75.43;;;39.80;;
21297;SDS011;10808;48.010;11.326;2023-03-04T07:18:39;77.47;;;39.40;;
21297;SDS011;10808;48.010;11.326;2023-03-04T07:21:06;80.03;;;40.95;;
21297;SDS011;10808;48.010;11.326;2023-03-04T07:23:33;77.25;;;39.50;;
21297;SDS011;10808;48.010;11.326;2023-03-04T07:25:59;81.47;;;41.40;;
21297;SDS011;10808;48.010;11.326;2023-03-04T07:28:25;78.68;;;40.78;;
21297;SDS011;10808;48.010;11.326;2023-03-04T07:30:51;76.53;;;40.08;;
21297;SDS011;10808;48.010;11.326;2023-03-04T07:33:17;73.88;;;38.45;;
21297;SDS011;10808;48.010;11.326;2023-03-04T07:35:43;76.22;;;39.15;;
21297;SDS011;10808;48.010;11.326;2023-03-04T07:38:09;73.07;;;38.38;;
21297;SDS011;10808;48.010;11.326;2023-03-04T07:40:36;73.07;;;39.13;;
21297;SDS011;10808;48.010;11.326;2023-03-04T07:43:02;71.60;;;39.05;;
21297;SDS011;10808;48.010;11.326;2023-03-04T07:45:29;76.72;;;38.60;;
21297;SDS011;10808;48.010;11.326;2023-03-04T07:47:56;82.03;;;41.30;;
21297;SDS011;10808;48.010;11.326;2023-03-04T07:50:23;83.05;;;41.72;;
21297;SDS011;10808;48.010;11.326;2023-03-04T07:52:49;76.27;;;39.50;;
21297;SDS011;10808;48.010;11.326;2023-03-04T07:55:15;79.65;;;41.15;;
21297;SDS011;10808;48.010;11.326;2023-03-04T07:57:43;81.90;;;40.88;;
21297;SDS011;10808;48.010;11.326;2023-03-04T08:00:12;78.40;;;41.05;;
21297;SDS011;10808;48.010;11.326;2023-03-04T08:02:41;74.15;;;39.65;;
21297;SDS011;10808;48.010;11.326;2023-03-04T08:05:08;73.83;;;40.10;;
21297;SDS011;10808;48.010;11.326;2023-03-04T08:07:36;73.70;;;39.22;;
21297;SDS011;10808;48.010;11.326;2023-03-04T08:10:02;73.97;;;39.92;;
21297;SDS011;10808;48.010;11.326;2023-03-04T08:12:29;82.63;;;43.73;;
21297;SDS011;10808;48.010;11.326;2023-03-04T08:14:55;79.57;;;42.10;;
21297;SDS011;10808;48.010;11.326;2023-03-04T08:17:21;85.68;;;45.13;;
21297;SDS011;10808;48.010;11.326;2023-03-04T08:19:47;79.30;;;42.80;;
21297;SDS011;10808;48.010;11.326;2023-03-04T08:22:13;78.07;;;42.30;;
21297;SDS011;10808;48.010;11.326;2023-03-04T08:24:39;79.65;;;43.30;;
21297;SDS011;10808;48.010;11.326;2023-03-04T08:27:05;78.07;;;43.33;;
21297;SDS011;10808;48.010;11.326;2023-03-04T08:29:31;80.43;;;43.63;;
21297;SDS011;10808;48.010;11.326;2023-03-04T08:31:57;79.10;;;43.65;;
21297;SDS011;10808;48.010;11.326;2023-03-04T08:34:24;71.68;;;41.05;;
21297;SDS011;10808;48.010;11.326;2023-03-04T08:36:53;71.95;;;40.40;;
21297;SDS011;10808;48.010;11.326;2023-03-04T08:39:19;73.57;;;41.20;;
21297;SDS011;10808;48.010;11.326;2023-03-04T08:41:46;76.67;;;42.33;;
21297;SDS011;10808;48.010;11.326;2023-03-04T08:44:13;70.95;;;40.80;;
21297;SDS011;10808;48.010;11.326;2023-03-04T08:46:40;72.47;;;40.63;;
21297;SDS011;10808;48.010;11.326;2023-03-04T08:49:09;73.15;;;40.83;;
21297;SDS011;10808;48.010;11.326;2023-03-04T08:51:36;70.82;;;41.38;;
21297;SDS011;10808;48.010;11.326;2023-03-04T08:54:02;68.93;;;40.38;;
21297;SDS011;10808;48.010;11.326;2023-03-04T08:56:30;72.90;;;42.05;;
21297;SDS011;10808;48.010;11.326;2023-03-04T08:58:57;70.80;;;41.25;;
21297;SDS011;10808;48.010;11.326;2023-03-04T09:01:23;69.63;;;40.22;;
21297;SDS011;10808;48.010;11.326;2023-03-04T09:03:49;72.18;;;41.50;;
21297;SDS011;10808;48.010;11.326;2023-03-04T09:06:16;68.38;;;40.42;;
21297;SDS011;10808;48.010;11.326;2023-03-04T09:08:45;68.03;;;40.80;;
21297;SDS011;10808;48.010;11.326;2023-03-04T09:11:13;68.70;;;40.15;;
21297;SDS011;10808;48.010;11.326;2023-03-04T09:13:39;68.93;;;40.53;;
21297;SDS011;10808;48.010;11.326;2023-03-04T09:16:12;67.47;;;38.78;;
21297;SDS011;10808;48.010;11.326;2023-03-04T09:18:39;64.85;;;38.08;;
21297;SDS011;10808;48.010;11.326;2023-03-04T09:21:06;65.45;;;39.28;;
21297;SDS011;10808;48.010;11.326;2023-03-04T09:23:33;59.67;;;35.33;;
21297;SDS011;10808;48.010;11.326;2023-03-04T09:26:00;61.55;;;36.13;;
21297;SDS011;10808;48.010;11.326;2023-03-04T09:28:26;58.33;;;34.47;;
21297;SDS011;10808;48.010;11.326;2023-03-04T09:30:52;58.47;;;34.67;;
21297;SDS011;10808;48.010;11.326;2023-03-04T09:33:18;62.30;;;35.47;;
21297;SDS011;10808;48.010;11.326;2023-03-04T09:35:44;55.35;;;34.22;;
21297;SDS011;10808;48.010;11.326;2023-03-04T09:38:10;58.78;;;35.92;;
21297;SDS011;10808;48.010;11.326;2023-03-04T09:40:41;58.83;;;35.28;;
21297;SDS011;10808;48.010;11.326;2023-03-04T09:43:16;57.80;;;35.15;;
21297;SDS011;10808;48.010;11.326;2023-03-04T09:45:54;56.50;;;35.00;;
21297;SDS011;10808;48.010;11.326;2023-03-04T09:48:26;54.95;;;34.17;;
21297;SDS011;10808;48.010;11.326;2023-03-04T09:51:02;56.20;;;34.47;;
21297;SDS011;10808;48.010;11.326;2023-03-04T09:53:33;57.97;;;34.47;;
21297;SDS011;10808;48.010;11.326;2023-03-04T09:56:20;54.05;;;34.53;;
21297;SDS011;10808;48.010;11.326;2023-03-04T10:01:39;52.88;;;34.00;;
21297;SDS011;10808;48.010;11.326;2023-03-04T10:04:13;53.58;;;33.63;;
21297;SDS011;10808;48.010;11.326;2023-03-04T10:06:43;57.22;;;34.05;;
21297;SDS011;10808;48.010;11.326;2023-03-04T10:09:15;48.83;;;32.10;;
21297;SDS011;10808;48.010;11.326;2023-03-04T10:11:51;50.70;;;32.38;;
21297;SDS011;10808;48.010;11.326;2023-03-04T10:17:23;50.40;;;31.88;;
21297;SDS011;10808;48.010;11.326;2023-03-04T10:23:10;50.53;;;33.30;;
21297;SDS011;10808;48.010;11.326;2023-03-04T10:25:45;49.72;;;32.15;;
21297;SDS011;10808;48.010;11.326;2023-03-04T10:28:14;47.35;;;29.73;;
21297;SDS011;10808;48.010;11.326;2023-03-04T10:30:52;47.43;;;31.07;;
21297;SDS011;10808;48.010;11.326;2023-03-04T10:33:38;49.50;;;32.25;;
21297;SDS011;10808;48.010;11.326;2023-03-04T10:39:04;48.70;;;30.83;;
21297;SDS011;10808;48.010;11.326;2023-03-04T10:41:52;44.03;;;29.63;;
21297;SDS011;10808;48.010;11.326;2023-03-04T10:44:21;46.10;;;29.10;;
21297;SDS011;10808;48.010;11.326;2023-03-04T10:46:48;43.20;;;28.25;;
21297;SDS011;10808;48.010;11.326;2023-03-04T10:49:18;41.58;;;26.73;;
21297;SDS011;10808;48.010;11.326;2023-03-04T10:52:31;40.20;;;26.23;;
21297;SDS011;10808;48.010;11.326;2023-03-04T10:54:50;42.38;;;27.15;;
21297;SDS011;10808;48.010;11.326;2023-03-04T10:59:58;42.78;;;27.15;;
21297;SDS011;10808;48.010;11.326;2023-03-04T11:02:40;41.70;;;27.27;;
21297;SDS011;10808;48.010;11.326;2023-03-04T11:12:46;46.35;;;26.73;;
21297;SDS011;10808;48.010;11.326;2023-03-04T11:15:27;43.53;;;27.30;;
21297;SDS011;10808;48.010;11.326;2023-03-04T11:18:05;41.22;;;26.83;;
21297;SDS011;10808;48.010;11.326;2023-03-04T11:20:38;44.13;;;27.23;;
21297;SDS011;10808;48.010;11.326;2023-03-04T11:23:13;45.42;;;27.45;;
21297;SDS011;10808;48.010;11.326;2023-03-04T11:25:44;44.05;;;26.27;;
21297;SDS011;10808;48.010;11.326;2023-03-04T11:28:36;39.03;;;25.45;;
21297;SDS011;10808;48.010;11.326;2023-03-04T11:31:15;41.05;;;26.75;;
21297;SDS011;10808;48.010;11.326;2023-03-04T11:36:55;40.08;;;25.85;;
21297;SDS011;10808;48.010;11.326;2023-03-04T11:39:38;37.80;;;25.17;;
21297;SDS011;10808;48.010;11.326;2023-03-04T11:42:16;41.90;;;26.45;;
21297;SDS011;10808;48.010;11.326;2023-03-04T11:44:56;40.33;;;26.55;;
21297;SDS011;10808;48.010;11.326;2023-03-04T11:50:06;39.88;;;26.25;;
21297;SDS011;10808;48.010;11.326;2023-03-04T11:55:47;41.83;;;26.38;;
21297;SDS011;10808;48.010;11.326;2023-03-04T11:58:28;43.90;;;28.38;;
21297;SDS011;10808;48.010;11.326;2023-03-04T12:01:11;43.45;;;27.33;;
21297;SDS011;10808;48.010;11.326;2023-03-04T12:03:55;44.30;;;28.88;;
21297;SDS011;10808;48.010;11.326;2023-03-04T12:09:20;45.88;;;28.55;;
21297;SDS011;10808;48.010;11.326;2023-03-04T12:12:26;45.85;;;29.10;;
21297;SDS011;10808;48.010;11.326;2023-03-04T12:17:55;43.90;;;28.70;;
21297;SDS011;10808;48.010;11.326;2023-03-04T12:20:52;46.55;;;29.60;;
21297;SDS011;10808;48.010;11.326;2023-03-04T12:23:43;44.22;;;29.75;;
21297;SDS011;10808;48.010;11.326;2023-03-04T12:32:10;47.85;;;30.98;;
21297;SDS011;10808;48.010;11.326;2023-03-04T12:35:07;46.72;;;29.98;;
21297;SDS011;10808;48.010;11.326;2023-03-04T12:37:52;47.43;;;30.93;;
21297;SDS011;10808;48.010;11.326;2023-03-04T12:43:22;46.13;;;30.48;;
21297;SDS011;10808;48.010;11.326;2023-03-04T12:46:01;48.03;;;30.23;;
21297;SDS011;10808;48.010;11.326;2023-03-04T12:48:50;50.65;;;32.80;;
21297;SDS011;10808;48.010;11.326;2023-03-04T12:54:36;48.25;;;30.20;;
21297;SDS011;10808;48.010;11.326;2023-03-04T12:57:07;48.45;;;31.83;;
21297;SDS011;10808;48.010;11.326;2023-03-04T12:59:43;50.15;;;31.70;;
21297;SDS011;10808;48.010;11.326;2023-03-04T13:02:28;49.28;;;32.20;;
21297;SDS011;10808;48.010;11.326;2023-03-04T13:05:23;49.88;;;31.50;;
21297;SDS011;10808;48.010;11.326;2023-03-04T13:10:45;49.17;;;30.85;;
21297;SDS011;10808;48.010;11.326;2023-03-04T13:16:04;48.90;;;30.52;;
21297;SDS011;10808;48.010;11.326;2023-03-04T13:18:36;48.67;;;30.87;;
21297;SDS011;10808;48.010;11.326;2023-03-04T13:23:44;47.75;;;30.50;;
21297;SDS011;10808;48.010;11.326;2023-03-04T13:26:30;52.87;;;32.63;;
21297;SDS011;10808;48.010;11.326;2023-03-04T13:42:51;43.90;;;28.60;;
21297;SDS011;10808;48.010;11.326;2023-03-04T13:45:28;47.93;;;30.17;;
21297;SDS011;10808;48.010;11.326;2023-03-04T13:47:54;48.10;;;30.40;;
21297;SDS011;10808;48.010;11.326;2023-03-04T13:50:22;49.92;;;31.15;;
21297;SDS011;10808;48.010;11.326;2023-03-04T13:52:56;48.45;;;31.73;;
21297;SDS011;10808;48.010;11.326;2023-03-04T13:55:36;51.17;;;32.63;;
21297;SDS011;10808;48.010;11.326;2023-03-04T13:58:22;49.55;;;31.17;;
21297;SDS011;10808;48.010;11.326;2023-03-04T14:00:52;51.38;;;32.63;;
21297;SDS011;10808;48.010;11.326;2023-03-04T14:03:26;46.97;;;31.48;;
21297;SDS011;10808;48.010;11.326;2023-03-04T14:06:07;47.65;;;30.50;;
21297;SDS011;10808;48.010;11.326;2023-03-04T14:08:35;47.95;;;30.20;;
21297;SDS011;10808;48.010;11.326;2023-03-04T14:11:01;47.33;;;29.98;;
21297;SDS011;10808;48.010;11.326;2023-03-04T14:13:27;46.45;;;30.55;;
21297;SDS011;10808;48.010;11.326;2023-03-04T14:15:54;44.10;;;29.07;;
21297;SDS011;10808;48.010;11.326;2023-03-04T14:18:22;45.08;;;29.58;;
21297;SDS011;10808;48.010;11.326;2023-03-04T14:20:49;42.72;;;28.40;;
21297;SDS011;10808;48.010;11.326;2023-03-04T14:26:02;44.85;;;28.40;;
21297;SDS011;10808;48.010;11.326;2023-03-04T14:28:41;41.40;;;28.17;;
21297;SDS011;10808;48.010;11.326;2023-03-04T14:31:22;41.80;;;27.87;;
21297;SDS011;10808;48.010;11.326;2023-03-04T14:33:51;44.55;;;28.25;;
21297;SDS011;10808;48.010;11.326;2023-03-04T14:36:24;41.20;;;27.90;;
21297;SDS011;10808;48.010;11.326;2023-03-04T14:38:52;44.08;;;28.60;;
21297;SDS011;10808;48.010;11.326;2023-03-04T14:41:33;43.97;;;28.67;;
21297;SDS011;10808;48.010;11.326;2023-03-04T14:44:12;42.83;;;27.70;;
21297;SDS011;10808;48.010;11.326;2023-03-04T14:49:45;40.53;;;26.90;;
21297;SDS011;10808;48.010;11.326;2023-03-04T14:54:59;40.75;;;26.35;;
21297;SDS011;10808;48.010;11.326;2023-03-04T14:57:45;41.30;;;26.80;;
21297;SDS011;10808;48.010;11.326;2023-03-04T15:00:22;39.07;;;26.57;;
21297;SDS011;10808;48.010;11.326;2023-03-04T15:02:54;39.90;;;27.02;;
21297;SDS011;10808;48.010;11.326;2023-03-04T15:05:50;39.33;;;26.88;;
21297;SDS011;10808;48.010;11.326;2023-03-04T15:08:21;41.53;;;26.70;;
21297;SDS011;10808;48.010;11.326;2023-03-04T15:10:59;41.53;;;26.98;;
21297;SDS011;10808;48.010;11.326;2023-03-04T15:16:15;42.15;;;26.88;;
21297;SDS011;10808;48.010;11.326;2023-03-04T15:18:59;44.33;;;27.67;;
21297;SDS011;10808;48.010;11.326;2023-03-04T15:21:29;43.17;;;27.83;;
21297;SDS011;10808;48.010;11.326;2023-03-04T15:24:01;35.10;;;22.83;;
21297;SDS011;10808;48.010;11.326;2023-03-04T15:26:30;31.90;;;21.00;;
21297;SDS011;10808;48.010;11.326;2023-03-04T15:28:57;30.15;;;19.90;;
21297;SDS011;10808;48.010;11.326;2023-03-04T15:31:24;30.67;;;20.52;;
21297;SDS011;10808;48.010;11.326;2023-03-04T15:33:50;29.92;;;19.60;;
21297;SDS011;10808;48.010;11.326;2023-03-04T15:36:21;33.15;;;20.70;;
21297;SDS011;10808;48.010;11.326;2023-03-04T15:38:48;32.08;;;20.05;;
21297;SDS011;10808;48.010;11.326;2023-03-04T15:41:25;27.10;;;18.77;;
21297;SDS011;10808;48.010;11.326;2023-03-04T15:43:52;30.98;;;19.65;;
21297;SDS011;10808;48.010;11.326;2023-03-04T15:46:19;29.05;;;19.17;;
21297;SDS011;10808;48.010;11.326;2023-03-04T15:48:45;31.08;;;20.23;;
21297;SDS011;10808;48.010;11.326;2023-03-04T15:51:13;30.65;;;19.33;;